This is the latest recevied weather packets stored in our database for station/object SP9MLI-1. If no packets are shown the sender has not sent any weather packets the latest 10 day(s).
| Time | Temp. | Humidity | Pressure | Rain* | Wind** | Luminosity | Snow |
|---|---|---|---|---|---|---|---|
| 1778164691 | 8.89° C | 84% | 1015 hPa | 0 mm | - | - | - |
| 1778163792 | 8.89° C | 84% | 1015 hPa | 0 mm | - | - | - |
| 1778162893 | 9.44° C | 84% | 1015.4 hPa | 0 mm | - | - | - |
| 1778161993 | 10° C | 84% | 1015.4 hPa | 0 mm | - | - | - |
| 1778161093 | 10° C | 83% | 1015.4 hPa | 0 mm | - | - | - |
| 1778160193 | 9.44° C | 82% | 1015.4 hPa | 0 mm | - | - | - |
| 1778159293 | 9.44° C | 85% | 1015.4 hPa | 0 mm | - | - | - |
| 1778158393 | 9.44° C | 85% | 1015.4 hPa | 0 mm | - | - | - |
| 1778157493 | 9.44° C | 86% | 1015 hPa | 0 mm | - | - | - |
| 1778156593 | 10° C | 84% | 1015.4 hPa | 0 mm | - | - | - |
| 1778155693 | 10° C | 83% | 1015.4 hPa | 0 mm | - | - | - |
| 1778154794 | 10.56° C | 84% | 1015.4 hPa | 0 mm | - | - | - |
| 1778153893 | 11.67° C | 83% | 1015.4 hPa | 0 mm | - | - | - |
| 1778152993 | 11.67° C | 80% | 1015.4 hPa | 0 mm | - | - | - |
| 1778152093 | 11.11° C | 80% | 1015 hPa | 0 mm | - | - | - |
| 1778151193 | 11.67° C | 81% | 1015.4 hPa | 0 mm | - | - | - |
| 1778150293 | 11.11° C | 79% | 1015 hPa | 0 mm | - | - | - |
| 1778148492 | 10° C | 89% | 1013.3 hPa | 0 mm | - | - | - |
| 1778147593 | 10° C | 89% | 1013.3 hPa | 0 mm | - | - | - |
| 1778146692 | 10° C | 89% | 1013.3 hPa | 0 mm | - | - | - |
| 1778145793 | 10° C | 89% | 1013.3 hPa | 0 mm | - | - | - |
| 1778144892 | 10.56° C | 87% | 1013 hPa | 0 mm | - | - | - |
| 1778143993 | 10° C | 85% | 1013 hPa | 0 mm | - | - | - |
| 1778143092 | 9.44° C | 91% | 1012 hPa | 0 mm | - | - | - |
| 1778142193 | 8.33° C | 91% | 1012 hPa | 0 mm | - | - | - |
* Rain latest hour (hover to see other rain measurements)
** Current wind speed in m/s (hover to see current wind gust speed)